sensor_id;sensor_type;location;lat;lon;timestamp;P1;durP1;ratioP1;P2;durP2;ratioP2
1054;SDS011;516;51.482;7.120;2023-05-10T00:05:05;13.83;;;7.67;;
1054;SDS011;516;51.482;7.120;2023-05-10T00:10:53;12.00;;;8.13;;
1054;SDS011;516;51.482;7.120;2023-05-10T00:16:41;9.93;;;7.60;;
1054;SDS011;516;51.482;7.120;2023-05-10T00:22:29;11.73;;;7.53;;
1054;SDS011;516;51.482;7.120;2023-05-10T00:28:16;13.73;;;8.90;;
1054;SDS011;516;51.482;7.120;2023-05-10T00:34:04;14.87;;;11.00;;
1054;SDS011;516;51.482;7.120;2023-05-10T00:39:52;12.83;;;9.43;;
1054;SDS011;516;51.482;7.120;2023-05-10T00:45:40;15.00;;;11.70;;
1054;SDS011;516;51.482;7.120;2023-05-10T00:51:28;19.73;;;12.40;;
1054;SDS011;516;51.482;7.120;2023-05-10T00:57:15;18.20;;;10.67;;
1054;SDS011;516;51.482;7.120;2023-05-10T01:12:54;16.50;;;11.10;;
1054;SDS011;516;51.482;7.120;2023-05-10T01:18:42;18.40;;;11.37;;
1054;SDS011;516;51.482;7.120;2023-05-10T01:36:48;15.23;;;11.30;;
1054;SDS011;516;51.482;7.120;2023-05-10T01:42:46;15.73;;;10.50;;
1054;SDS011;516;51.482;7.120;2023-05-10T01:48:57;16.47;;;10.80;;
1054;SDS011;516;51.482;7.120;2023-05-10T01:54:53;15.47;;;10.10;;
1054;SDS011;516;51.482;7.120;2023-05-10T02:01:05;18.57;;;9.90;;
1054;SDS011;516;51.482;7.120;2023-05-10T02:10:16;18.10;;;10.57;;
1054;SDS011;516;51.482;7.120;2023-05-10T02:16:05;24.83;;;13.70;;
1054;SDS011;516;51.482;7.120;2023-05-10T02:21:55;21.73;;;13.67;;
1054;SDS011;516;51.482;7.120;2023-05-10T02:27:43;28.90;;;15.03;;
1054;SDS011;516;51.482;7.120;2023-05-10T02:33:33;28.30;;;14.63;;
1054;SDS011;516;51.482;7.120;2023-05-10T02:39:21;29.63;;;15.50;;
1054;SDS011;516;51.482;7.120;2023-05-10T02:45:13;30.67;;;15.50;;
1054;SDS011;516;51.482;7.120;2023-05-10T02:51:05;26.63;;;13.00;;
1054;SDS011;516;51.482;7.120;2023-05-10T02:56:56;31.43;;;15.60;;
1054;SDS011;516;51.482;7.120;2023-05-10T03:02:47;27.90;;;13.10;;
1054;SDS011;516;51.482;7.120;2023-05-10T03:08:05;24.77;;;14.87;;
1054;SDS011;516;51.482;7.120;2023-05-10T03:14:06;25.60;;;15.50;;
1054;SDS011;516;51.482;7.120;2023-05-10T03:20:38;26.20;;;14.80;;
1054;SDS011;516;51.482;7.120;2023-05-10T03:26:50;25.13;;;13.87;;
1054;SDS011;516;51.482;7.120;2023-05-10T03:32:40;29.40;;;15.03;;
1054;SDS011;516;51.482;7.120;2023-05-10T03:38:27;23.93;;;12.23;;
1054;SDS011;516;51.482;7.120;2023-05-10T03:44:15;22.60;;;13.40;;
1054;SDS011;516;51.482;7.120;2023-05-10T03:50:03;30.10;;;14.80;;
1054;SDS011;516;51.482;7.120;2023-05-10T03:55:52;28.57;;;16.83;;
1054;SDS011;516;51.482;7.120;2023-05-10T04:01:40;37.07;;;17.70;;
1054;SDS011;516;51.482;7.120;2023-05-10T04:10:53;39.03;;;21.17;;
1054;SDS011;516;51.482;7.120;2023-05-10T04:16:41;35.53;;;19.97;;
1054;SDS011;516;51.482;7.120;2023-05-10T04:22:29;40.70;;;22.17;;
1054;SDS011;516;51.482;7.120;2023-05-10T04:28:16;49.57;;;26.03;;
1054;SDS011;516;51.482;7.120;2023-05-10T04:34:04;45.83;;;26.53;;
1054;SDS011;516;51.482;7.120;2023-05-10T04:39:52;69.60;;;31.00;;
1054;SDS011;516;51.482;7.120;2023-05-10T04:45:39;65.00;;;30.80;;
1054;SDS011;516;51.482;7.120;2023-05-10T04:51:27;62.53;;;30.47;;
1054;SDS011;516;51.482;7.120;2023-05-10T04:57:15;66.13;;;30.83;;
1054;SDS011;516;51.482;7.120;2023-05-10T05:03:02;61.47;;;29.73;;
1054;SDS011;516;51.482;7.120;2023-05-10T05:08:50;73.57;;;34.90;;
1054;SDS011;516;51.482;7.120;2023-05-10T05:14:38;70.00;;;34.47;;
1054;SDS011;516;51.482;7.120;2023-05-10T05:20:26;60.07;;;31.67;;
1054;SDS011;516;51.482;7.120;2023-05-10T05:26:14;78.17;;;35.00;;
1054;SDS011;516;51.482;7.120;2023-05-10T05:32:02;63.43;;;33.43;;
1054;SDS011;516;51.482;7.120;2023-05-10T05:37:50;54.53;;;27.40;;
1054;SDS011;516;51.482;7.120;2023-05-10T05:43:37;65.20;;;34.57;;
1054;SDS011;516;51.482;7.120;2023-05-10T05:49:25;65.20;;;34.17;;
1054;SDS011;516;51.482;7.120;2023-05-10T05:55:13;62.53;;;29.37;;
1054;SDS011;516;51.482;7.120;2023-05-10T06:00:30;60.87;;;31.70;;
1054;SDS011;516;51.482;7.120;2023-05-10T06:06:18;57.00;;;33.70;;
1054;SDS011;516;51.482;7.120;2023-05-10T06:12:05;60.53;;;33.13;;
1054;SDS011;516;51.482;7.120;2023-05-10T06:17:53;62.07;;;32.30;;
1054;SDS011;516;51.482;7.120;2023-05-10T06:23:41;64.80;;;34.07;;
1054;SDS011;516;51.482;7.120;2023-05-10T06:29:28;49.67;;;30.20;;
1054;SDS011;516;51.482;7.120;2023-05-10T06:35:16;46.80;;;28.53;;
1054;SDS011;516;51.482;7.120;2023-05-10T06:41:04;54.57;;;28.67;;
1054;SDS011;516;51.482;7.120;2023-05-10T06:46:52;41.60;;;24.77;;
1054;SDS011;516;51.482;7.120;2023-05-10T06:52:42;43.57;;;28.93;;
1054;SDS011;516;51.482;7.120;2023-05-10T06:58:30;47.57;;;25.80;;
1054;SDS011;516;51.482;7.120;2023-05-10T07:04:19;40.57;;;23.80;;
1054;SDS011;516;51.482;7.120;2023-05-10T07:13:33;38.73;;;25.20;;
1054;SDS011;516;51.482;7.120;2023-05-10T07:19:21;35.50;;;24.00;;
1054;SDS011;516;51.482;7.120;2023-05-10T07:25:09;38.90;;;23.43;;
1054;SDS011;516;51.482;7.120;2023-05-10T07:30:57;41.60;;;24.07;;
1054;SDS011;516;51.482;7.120;2023-05-10T07:36:44;47.53;;;21.90;;
1054;SDS011;516;51.482;7.120;2023-05-10T07:42:32;35.87;;;25.27;;
1054;SDS011;516;51.482;7.120;2023-05-10T07:48:20;33.27;;;20.80;;
1054;SDS011;516;51.482;7.120;2023-05-10T07:54:07;35.77;;;21.20;;
1054;SDS011;516;51.482;7.120;2023-05-10T07:59:55;37.00;;;23.00;;
1054;SDS011;516;51.482;7.120;2023-05-10T08:05:43;42.90;;;22.60;;
1054;SDS011;516;51.482;7.120;2023-05-10T08:11:39;41.80;;;21.30;;
1054;SDS011;516;51.482;7.120;2023-05-10T08:17:26;37.40;;;21.43;;
1054;SDS011;516;51.482;7.120;2023-05-10T08:23:14;42.03;;;23.30;;
1054;SDS011;516;51.482;7.120;2023-05-10T08:29:01;35.57;;;21.77;;
1054;SDS011;516;51.482;7.120;2023-05-10T08:34:48;37.50;;;24.47;;
1054;SDS011;516;51.482;7.120;2023-05-10T08:40:39;28.60;;;17.87;;
1054;SDS011;516;51.482;7.120;2023-05-10T08:46:28;32.13;;;16.03;;
1054;SDS011;516;51.482;7.120;2023-05-10T08:52:20;29.97;;;17.40;;
1054;SDS011;516;51.482;7.120;2023-05-10T08:58:10;25.73;;;17.10;;
1054;SDS011;516;51.482;7.120;2023-05-10T09:03:58;33.73;;;19.60;;
1054;SDS011;516;51.482;7.120;2023-05-10T09:20:11;28.57;;;20.30;;
1054;SDS011;516;51.482;7.120;2023-05-10T09:26:05;26.20;;;18.00;;
1054;SDS011;516;51.482;7.120;2023-05-10T09:31:52;20.70;;;14.87;;
1054;SDS011;516;51.482;7.120;2023-05-10T09:37:44;26.50;;;18.00;;
1054;SDS011;516;51.482;7.120;2023-05-10T09:43:37;31.03;;;16.17;;
1054;SDS011;516;51.482;7.120;2023-05-10T09:49:06;20.50;;;16.20;;
1054;SDS011;516;51.482;7.120;2023-05-10T09:54:53;25.17;;;16.93;;
1054;SDS011;516;51.482;7.120;2023-05-10T10:00:42;26.23;;;18.03;;
1054;SDS011;516;51.482;7.120;2023-05-10T10:06:37;23.87;;;17.50;;
1054;SDS011;516;51.482;7.120;2023-05-10T10:12:26;22.57;;;16.80;;
1054;SDS011;516;51.482;7.120;2023-05-10T10:18:14;27.10;;;19.30;;
1054;SDS011;516;51.482;7.120;2023-05-10T10:24:02;28.33;;;18.47;;
1054;SDS011;516;51.482;7.120;2023-05-10T10:30:01;18.33;;;15.90;;
1054;SDS011;516;51.482;7.120;2023-05-10T10:36:18;18.03;;;14.67;;
1054;SDS011;516;51.482;7.120;2023-05-10T10:42:07;26.43;;;21.43;;
1054;SDS011;516;51.482;7.120;2023-05-10T10:54:10;20.60;;;16.77;;
1054;SDS011;516;51.482;7.120;2023-05-10T11:06:09;20.47;;;17.80;;
1054;SDS011;516;51.482;7.120;2023-05-10T11:15:19;24.73;;;16.60;;
1054;SDS011;516;51.482;7.120;2023-05-10T11:21:33;17.10;;;15.30;;
1054;SDS011;516;51.482;7.120;2023-05-10T11:27:50;19.20;;;16.87;;
1054;SDS011;516;51.482;7.120;2023-05-10T11:39:32;17.20;;;15.00;;
1054;SDS011;516;51.482;7.120;2023-05-10T11:45:20;15.70;;;13.77;;
1054;SDS011;516;51.482;7.120;2023-05-10T11:51:11;21.17;;;16.53;;
1054;SDS011;516;51.482;7.120;2023-05-10T11:56:59;17.97;;;14.30;;
1054;SDS011;516;51.482;7.120;2023-05-10T12:02:47;18.70;;;14.50;;
1054;SDS011;516;51.482;7.120;2023-05-10T12:08:35;20.07;;;16.30;;
1054;SDS011;516;51.482;7.120;2023-05-10T12:14:23;22.07;;;15.57;;
1054;SDS011;516;51.482;7.120;2023-05-10T12:26:03;18.30;;;16.23;;
1054;SDS011;516;51.482;7.120;2023-05-10T12:31:58;20.77;;;16.80;;
1054;SDS011;516;51.482;7.120;2023-05-10T12:37:47;17.13;;;15.20;;
1054;SDS011;516;51.482;7.120;2023-05-10T12:43:35;15.73;;;14.17;;
1054;SDS011;516;51.482;7.120;2023-05-10T12:49:23;17.97;;;16.07;;
1054;SDS011;516;51.482;7.120;2023-05-10T12:55:10;15.07;;;13.53;;
1054;SDS011;516;51.482;7.120;2023-05-10T13:00:58;11.03;;;10.10;;
1054;SDS011;516;51.482;7.120;2023-05-10T13:06:46;12.67;;;11.50;;
1054;SDS011;516;51.482;7.120;2023-05-10T13:15:56;11.27;;;10.43;;
1054;SDS011;516;51.482;7.120;2023-05-10T13:21:44;11.90;;;11.00;;
1054;SDS011;516;51.482;7.120;2023-05-10T13:27:32;12.83;;;11.73;;
1054;SDS011;516;51.482;7.120;2023-05-10T13:33:19;11.13;;;10.23;;
1054;SDS011;516;51.482;7.120;2023-05-10T13:39:07;9.97;;;9.23;;
1054;SDS011;516;51.482;7.120;2023-05-10T13:44:55;10.90;;;10.20;;
1054;SDS011;516;51.482;7.120;2023-05-10T13:50:43;11.27;;;10.37;;
1054;SDS011;516;51.482;7.120;2023-05-10T13:56:31;11.30;;;10.50;;
1054;SDS011;516;51.482;7.120;2023-05-10T14:02:19;11.13;;;10.50;;
1054;SDS011;516;51.482;7.120;2023-05-10T14:08:06;12.23;;;11.43;;
1054;SDS011;516;51.482;7.120;2023-05-10T14:13:53;11.60;;;10.80;;
1054;SDS011;516;51.482;7.120;2023-05-10T14:19:41;11.67;;;10.83;;
1054;SDS011;516;51.482;7.120;2023-05-10T14:25:28;13.07;;;12.17;;
1054;SDS011;516;51.482;7.120;2023-05-10T14:31:16;13.17;;;12.37;;
1054;SDS011;516;51.482;7.120;2023-05-10T14:37:06;12.50;;;11.60;;
1054;SDS011;516;51.482;7.120;2023-05-10T14:42:54;12.57;;;11.67;;
1054;SDS011;516;51.482;7.120;2023-05-10T14:48:41;13.00;;;11.80;;
1054;SDS011;516;51.482;7.120;2023-05-10T14:54:29;12.57;;;11.60;;
1054;SDS011;516;51.482;7.120;2023-05-10T15:00:17;11.80;;;11.13;;
1054;SDS011;516;51.482;7.120;2023-05-10T15:06:07;12.53;;;11.83;;
1054;SDS011;516;51.482;7.120;2023-05-10T15:22:20;15.10;;;14.20;;
1054;SDS011;516;51.482;7.120;2023-05-10T15:27:31;16.00;;;14.80;;
1054;SDS011;516;51.482;7.120;2023-05-10T15:33:19;15.50;;;14.47;;
1054;SDS011;516;51.482;7.120;2023-05-10T15:39:06;15.50;;;14.40;;
1054;SDS011;516;51.482;7.120;2023-05-10T15:44:34;15.10;;;14.10;;
1054;SDS011;516;51.482;7.120;2023-05-10T15:50:21;14.87;;;13.73;;
1054;SDS011;516;51.482;7.120;2023-05-10T15:56:09;15.63;;;14.50;;
1054;SDS011;516;51.482;7.120;2023-05-10T16:01:57;15.87;;;14.87;;
1054;SDS011;516;51.482;7.120;2023-05-10T16:07:45;17.40;;;16.00;;
1054;SDS011;516;51.482;7.120;2023-05-10T16:16:58;15.10;;;14.10;;
1054;SDS011;516;51.482;7.120;2023-05-10T16:22:46;16.80;;;15.40;;
1054;SDS011;516;51.482;7.120;2023-05-10T16:28:34;16.37;;;14.97;;
1054;SDS011;516;51.482;7.120;2023-05-10T16:34:21;16.97;;;15.77;;
1054;SDS011;516;51.482;7.120;2023-05-10T16:40:10;16.60;;;15.30;;
1054;SDS011;516;51.482;7.120;2023-05-10T16:45:59;16.40;;;14.70;;
1054;SDS011;516;51.482;7.120;2023-05-10T16:51:46;16.07;;;14.47;;
1054;SDS011;516;51.482;7.120;2023-05-10T16:57:34;14.70;;;13.20;;
1054;SDS011;516;51.482;7.120;2023-05-10T17:03:22;15.70;;;10.60;;
1054;SDS011;516;51.482;7.120;2023-05-10T17:09:09;11.00;;;9.70;;
1054;SDS011;516;51.482;7.120;2023-05-10T17:14:53;38.90;;;35.37;;
1054;SDS011;516;51.482;7.120;2023-05-10T17:20:42;21.83;;;14.17;;
1054;SDS011;516;51.482;7.120;2023-05-10T17:26:30;16.97;;;14.90;;
1054;SDS011;516;51.482;7.120;2023-05-10T17:32:18;15.43;;;13.80;;
1054;SDS011;516;51.482;7.120;2023-05-10T17:38:06;15.73;;;9.73;;
1054;SDS011;516;51.482;7.120;2023-05-10T17:43:53;10.20;;;8.50;;
1054;SDS011;516;51.482;7.120;2023-05-10T17:49:41;10.70;;;8.00;;
1054;SDS011;516;51.482;7.120;2023-05-10T17:55:29;9.10;;;8.00;;
1054;SDS011;516;51.482;7.120;2023-05-10T18:01:17;11.53;;;7.50;;
1054;SDS011;516;51.482;7.120;2023-05-10T18:07:05;11.40;;;9.30;;
1054;SDS011;516;51.482;7.120;2023-05-10T18:22:44;9.90;;;8.80;;
1054;SDS011;516;51.482;7.120;2023-05-10T18:28:32;10.07;;;8.63;;
1054;SDS011;516;51.482;7.120;2023-05-10T18:34:20;7.47;;;6.60;;
1054;SDS011;516;51.482;7.120;2023-05-10T18:40:08;10.80;;;6.83;;
1054;SDS011;516;51.482;7.120;2023-05-10T18:45:57;8.40;;;5.83;;
1054;SDS011;516;51.482;7.120;2023-05-10T18:51:44;9.90;;;5.90;;
1054;SDS011;516;51.482;7.120;2023-05-10T18:57:33;7.13;;;6.17;;
1054;SDS011;516;51.482;7.120;2023-05-10T19:03:27;7.37;;;5.70;;
1054;SDS011;516;51.482;7.120;2023-05-10T19:09:16;7.57;;;6.30;;
1054;SDS011;516;51.482;7.120;2023-05-10T19:14:54;8.83;;;7.80;;
1054;SDS011;516;51.482;7.120;2023-05-10T19:20:41;14.90;;;10.20;;
1054;SDS011;516;51.482;7.120;2023-05-10T19:26:29;14.10;;;9.90;;
1054;SDS011;516;51.482;7.120;2023-05-10T19:32:17;14.77;;;11.20;;
1054;SDS011;516;51.482;7.120;2023-05-10T19:38:05;17.00;;;11.23;;
1054;SDS011;516;51.482;7.120;2023-05-10T19:43:52;16.70;;;12.00;;
1054;SDS011;516;51.482;7.120;2023-05-10T19:49:40;17.37;;;13.13;;
1054;SDS011;516;51.482;7.120;2023-05-10T19:55:29;15.67;;;13.77;;
1054;SDS011;516;51.482;7.120;2023-05-10T20:01:18;18.33;;;13.63;;
1054;SDS011;516;51.482;7.120;2023-05-10T20:07:06;22.13;;;13.70;;
1054;SDS011;516;51.482;7.120;2023-05-10T20:22:44;17.23;;;14.53;;
1054;SDS011;516;51.482;7.120;2023-05-10T20:28:33;19.70;;;15.60;;
1054;SDS011;516;51.482;7.120;2023-05-10T20:34:21;19.60;;;15.80;;
1054;SDS011;516;51.482;7.120;2023-05-10T20:40:09;21.90;;;15.00;;
1054;SDS011;516;51.482;7.120;2023-05-10T20:45:57;22.20;;;14.97;;
1054;SDS011;516;51.482;7.120;2023-05-10T20:51:51;20.10;;;16.53;;
1054;SDS011;516;51.482;7.120;2023-05-10T20:57:38;26.03;;;17.30;;
1054;SDS011;516;51.482;7.120;2023-05-10T21:03:26;25.47;;;18.00;;
1054;SDS011;516;51.482;7.120;2023-05-10T21:09:14;30.80;;;19.07;;
1054;SDS011;516;51.482;7.120;2023-05-10T21:15:12;28.00;;;18.63;;
1054;SDS011;516;51.482;7.120;2023-05-10T21:21:00;27.07;;;18.77;;
1054;SDS011;516;51.482;7.120;2023-05-10T21:26:47;21.27;;;16.37;;
1054;SDS011;516;51.482;7.120;2023-05-10T21:32:34;25.43;;;18.10;;
1054;SDS011;516;51.482;7.120;2023-05-10T21:38:22;25.30;;;17.70;;
1054;SDS011;516;51.482;7.120;2023-05-10T21:44:09;28.20;;;18.00;;
1054;SDS011;516;51.482;7.120;2023-05-10T21:49:56;25.73;;;17.23;;
1054;SDS011;516;51.482;7.120;2023-05-10T21:55:44;24.77;;;17.00;;
1054;SDS011;516;51.482;7.120;2023-05-10T22:01:32;27.13;;;16.10;;
1054;SDS011;516;51.482;7.120;2023-05-10T22:07:19;25.47;;;17.80;;
1054;SDS011;516;51.482;7.120;2023-05-10T22:22:48;21.17;;;16.33;;
1054;SDS011;516;51.482;7.120;2023-05-10T22:28:35;23.27;;;17.40;;
1054;SDS011;516;51.482;7.120;2023-05-10T22:34:23;25.77;;;18.27;;
1054;SDS011;516;51.482;7.120;2023-05-10T22:40:11;25.20;;;18.10;;
1054;SDS011;516;51.482;7.120;2023-05-10T22:45:59;27.00;;;19.20;;
1054;SDS011;516;51.482;7.120;2023-05-10T22:51:47;28.47;;;20.03;;
1054;SDS011;516;51.482;7.120;2023-05-10T22:57:35;30.73;;;19.40;;
1054;SDS011;516;51.482;7.120;2023-05-10T23:03:23;27.63;;;20.23;;
1054;SDS011;516;51.482;7.120;2023-05-10T23:09:11;29.30;;;20.90;;
1054;SDS011;516;51.482;7.120;2023-05-10T23:14:55;32.57;;;21.10;;
1054;SDS011;516;51.482;7.120;2023-05-10T23:20:44;32.30;;;23.07;;
1054;SDS011;516;51.482;7.120;2023-05-10T23:26:32;40.23;;;24.83;;
1054;SDS011;516;51.482;7.120;2023-05-10T23:32:19;35.97;;;23.10;;
1054;SDS011;516;51.482;7.120;2023-05-10T23:38:08;41.27;;;25.80;;
1054;SDS011;516;51.482;7.120;2023-05-10T23:43:56;36.57;;;25.50;;
1054;SDS011;516;51.482;7.120;2023-05-10T23:49:43;40.63;;;27.20;;
1054;SDS011;516;51.482;7.120;2023-05-10T23:55:31;47.33;;;27.83;;
